Time;durP1;ratioP1;P1;durP2;ratioP2;P2;SDS_P1;SDS_P2;PMS_P1;PMS_P2;Temp;Humidity;BMP_temperature;BMP_pressure;BME280_temperature;BME280_humidity;BME280_pressure;Samples;Min_cycle;Max_cycle;Signal;HPM_P1;HPM_P2
2022/12/04 00:02:27;;;;;;;69.60;62.90;;;;;;;0.58;100.00;98447.46;104966;1322;22194;-84
2022/12/04 00:04:55;;;;;;;59.70;53.90;;;;;;;0.57;100.00;98447.81;104724;1329;22306;-84
2022/12/04 00:07:23;;;;;;;65.40;59.10;;;;;;;0.58;100.00;98442.64;104957;1321;22196;-84
2022/12/04 00:09:51;;;;;;;65.40;59.10;;;;;;;0.58;100.00;98441.84;104721;1329;22211;-85
2022/12/04 00:12:19;;;;;;;84.50;74.50;;;;;;;0.58;100.00;98438.02;104956;1318;22205;-85
2022/12/04 00:14:47;;;;;;;90.20;78.90;;;;;;;0.57;100.00;98439.20;104964;1321;22191;-84
2022/12/04 00:17:35;;;;;;;115.40;94.00;;;;;;;0.55;100.00;98436.54;104736;1330;22121;-84
2022/12/04 00:20:04;;;;;;;82.70;74.70;;;;;;;0.50;100.00;98434.30;104719;1329;22199;-85
2022/12/04 00:22:32;;;;;;;76.50;69.50;;;;;;;0.47;100.00;98435.37;104755;1329;22174;-85
2022/12/04 00:25:01;;;;;;;66.20;59.80;;;;;;;0.44;100.00;98426.98;104765;1329;22118;-85
2022/12/04 00:27:29;;;;;;;67.20;61.10;;;;;;;0.45;100.00;98430.13;104770;1328;22132;-85
2022/12/04 00:29:57;;;;;;;60.70;55.30;;;;;;;0.47;100.00;98426.86;104722;1329;22344;-84
2022/12/04 00:32:25;;;;;;;59.30;53.80;;;;;;;0.46;100.00;98425.01;104660;1330;22946;-84
2022/12/04 00:34:53;;;;;;;60.20;54.50;;;;;;;0.45;100.00;98424.89;104972;1322;22342;-85
2022/12/04 00:37:21;;;;;;;61.10;55.40;;;;;;;0.45;100.00;98429.75;104755;1321;22282;-85
2022/12/04 00:39:49;;;;;;;62.20;56.40;;;;;;;0.43;100.00;98428.87;104622;1323;22868;-84
2022/12/04 00:42:17;;;;;;;59.10;53.30;;;;;;;0.42;100.00;98435.69;104689;1329;22257;-84
2022/12/04 00:44:45;;;;;;;58.70;53.20;;;;;;;0.40;100.00;98445.79;104650;1321;22282;-84
2022/12/04 00:47:13;;;;;;;60.00;54.20;;;;;;;0.41;100.00;98449.26;105010;1322;22133;-84
2022/12/04 00:49:41;;;;;;;58.20;52.70;;;;;;;0.43;100.00;98451.95;104961;1322;22092;-84
2022/12/04 00:52:08;;;;;;;60.70;54.90;;;;;;;0.42;100.00;98446.01;104641;1329;22327;-84
2022/12/04 00:54:36;;;;;;;65.10;58.80;;;;;;;0.40;100.00;98438.52;104749;1329;22167;-84
2022/12/04 00:57:04;;;;;;;63.70;57.60;;;;;;;0.37;100.00;98435.25;104777;1329;22818;-82
2022/12/04 00:59:32;;;;;;;61.60;55.30;;;;;;;0.33;100.00;98436.11;104650;1330;22213;-82
2022/12/04 01:02:00;;;;;;;55.20;49.60;;;;;;;0.29;100.00;98438.27;104769;1329;22777;-84
2022/12/04 01:04:28;;;;;;;53.80;48.90;;;;;;;0.27;100.00;98438.02;104974;1322;22093;-82
2022/12/04 01:06:56;;;;;;;54.20;49.10;;;;;;;0.28;100.00;98438.61;104748;1329;22230;-81
2022/12/04 01:09:32;;;;;;;52.70;47.50;;;;;;;0.27;100.00;98441.52;104776;1329;22127;-82
2022/12/04 01:12:00;;;;;;;51.40;46.40;;;;;;;0.27;100.00;98441.67;104563;1329;22078;-82
2022/12/04 01:14:28;;;;;;;52.20;47.00;;;;;;;0.28;100.00;98435.34;104628;1329;22144;-82
2022/12/04 01:16:56;;;;;;;53.80;48.40;;;;;;;0.28;100.00;98430.49;104758;1329;22280;-83
2022/12/04 01:19:24;;;;;;;55.40;49.90;;;;;;;0.25;100.00;98426.93;104872;1330;22110;-81
2022/12/04 01:21:52;;;;;;;53.80;48.50;;;;;;;0.22;100.00;98422.02;104826;1329;22287;-82
2022/12/04 01:24:20;;;;;;;50.00;45.10;;;;;;;0.20;100.00;98420.79;104769;1329;22131;-82
2022/12/04 01:26:48;;;;;;;48.80;44.20;;;;;;;0.21;100.00;98418.11;104742;1324;22297;-83
2022/12/04 01:29:16;;;;;;;47.40;42.90;;;;;;;0.23;100.00;98415.00;104988;1322;22070;-83
2022/12/04 01:31:44;;;;;;;52.60;47.60;;;;;;;0.25;100.00;98409.00;104782;1328;22208;-83
2022/12/04 01:34:12;;;;;;;48.30;43.70;;;;;;;0.27;100.00;98408.90;104547;1329;22232;-82
2022/12/04 01:36:40;;;;;;;50.30;45.40;;;;;;;0.27;100.00;98407.55;104742;1329;22175;-82
2022/12/04 01:39:07;;;;;;;48.10;43.40;;;;;;;0.29;100.00;98404.67;104511;1318;22236;-82
2022/12/04 01:41:35;;;;;;;48.00;43.20;;;;;;;0.31;100.00;98399.48;104976;1310;22290;-83
2022/12/04 01:44:12;;;;;;;49.50;44.70;;;;;;;0.30;100.00;98394.52;104971;1314;22226;-81
2022/12/04 01:46:43;;;;;;;48.40;43.60;;;;;;;0.28;100.00;98391.02;104749;1329;22214;-80
2022/12/04 01:49:24;;;;;;;44.30;40.10;;;;;;;0.27;100.00;98386.95;104617;1329;22307;-81
2022/12/04 01:51:57;;;;;;;47.60;43.00;;;;;;;0.30;100.00;98389.23;104759;1329;22230;-81
2022/12/04 01:54:31;;;;;;;48.70;44.00;;;;;;;0.33;100.00;98392.23;104788;1325;22470;-81
2022/12/04 01:57:11;;;;;;;48.10;43.70;;;;;;;0.36;100.00;98390.00;104974;1320;22905;-81
2022/12/04 01:59:44;;;;;;;45.30;41.20;;;;;;;0.40;100.00;98392.59;104947;1322;22188;-79
2022/12/04 02:02:16;;;;;;;51.70;46.80;;;;;;;0.40;100.00;98392.96;104621;1324;22226;-80
2022/12/04 02:04:44;;;;;;;49.70;44.80;;;;;;;0.36;100.00;98389.79;104643;1329;22655;-79
2022/12/04 02:07:12;;;;;;;48.00;43.40;;;;;;;0.34;100.00;98389.70;104556;1330;22299;-79
2022/12/04 02:09:41;;;;;;;47.80;43.10;;;;;;;0.35;100.00;98388.09;104750;1329;22162;-79
2022/12/04 02:12:40;;;;;;;37.90;33.60;;;;;;;0.35;100.00;98387.55;104621;1330;22216;-78
2022/12/04 02:15:28;;;;;;;47.90;43.00;;;;;;;0.35;100.00;98390.17;104758;1329;22110;-78
2022/12/04 02:18:22;;;;;;;46.20;41.80;;;;;;;0.34;100.00;98390.34;104565;1330;22264;-78
2022/12/04 02:20:56;;;;;;;50.60;45.90;;;;;;;0.31;100.00;98398.52;104698;1329;22273;-79
2022/12/04 02:23:33;;;;;;;50.60;46.00;;;;;;;0.27;100.00;98397.84;104634;1330;22905;-79
2022/12/04 02:26:22;;;;;;;48.80;44.10;;;;;;;0.24;100.00;98402.72;104927;1322;22212;-79
2022/12/04 02:28:56;;;;;;;46.90;42.30;;;;;;;0.22;100.00;98393.16;104742;1329;22152;-78
2022/12/04 02:31:32;;;;;;;43.10;39.00;;;;;;;0.21;100.00;98401.21;104723;1329;22239;-78
2022/12/04 02:34:15;;;;;;;46.00;41.60;;;;;;;0.22;100.00;98397.36;104848;1317;22181;-79
2022/12/04 02:36:53;;;;;;;44.60;40.30;;;;;;;0.21;100.00;98401.48;104971;1323;22142;-78
2022/12/04 02:39:34;;;;;;;45.80;41.30;;;;;;;0.24;100.00;98403.78;104966;1321;22223;-79
2022/12/04 02:42:20;;;;;;;48.40;43.90;;;;;;;0.28;100.00;98401.63;104983;1322;22211;-79
2022/12/04 02:44:56;;;;;;;48.30;43.70;;;;;;;0.32;100.00;98404.22;104970;1308;22178;-79
2022/12/04 02:47:25;;;;;;;45.70;41.40;;;;;;;0.33;100.00;98408.83;104906;1314;24238;-80
2022/12/04 02:49:58;;;;;;;43.10;38.90;;;;;;;0.33;100.00;98408.92;104975;1322;22132;-79
2022/12/04 02:52:52;;;;;;;45.00;40.80;;;;;;;0.33;100.00;98413.60;104993;1322;22206;-79
2022/12/04 02:55:30;;;;;;;46.90;42.20;;;;;;;0.36;100.00;98414.27;104875;1316;22171;-79
2022/12/04 02:58:06;;;;;;;45.00;40.80;;;;;;;0.39;100.00;98414.20;104728;1329;22251;-79
2022/12/04 03:00:35;;;;;;;49.70;45.00;;;;;;;0.39;100.00;98416.48;104533;1330;22273;-79
2022/12/04 03:03:33;;;;;;;50.40;45.60;;;;;;;0.40;100.00;98415.98;104607;1326;23022;-79
2022/12/04 03:06:06;;;;;;;52.10;47.00;;;;;;;0.36;100.00;98418.09;104149;1338;22312;-80
2022/12/04 03:08:44;;;;;;;52.70;47.70;;;;;;;0.31;100.00;98418.48;104073;1327;22238;-79
2022/12/04 03:11:12;;;;;;;48.90;44.00;;;;;;;0.28;100.00;98421.73;104064;1338;22246;-79
2022/12/04 03:13:46;;;;;;;51.80;46.90;;;;;;;0.27;100.00;98415.02;104130;1322;22252;-79
2022/12/04 03:16:23;;;;;;;50.00;45.20;;;;;;;0.28;100.00;98407.50;104107;1338;23059;-79
2022/12/04 03:19:09;;;;;;;50.00;45.00;;;;;;;0.27;100.00;98404.93;104277;1323;22229;-78
2022/12/04 03:21:45;;;;;;;45.60;41.40;;;;;;;0.26;100.00;98401.56;104065;1338;22252;-80
2022/12/04 03:24:23;;;;;;;47.20;42.70;;;;;;;0.25;100.00;98399.20;104112;1338;22234;-79
2022/12/04 03:26:59;;;;;;;48.40;43.80;;;;;;;0.24;100.00;98390.36;104323;1314;22211;-79
2022/12/04 03:29:38;;;;;;;47.90;43.30;;;;;;;0.24;100.00;98397.21;104288;1331;22147;-79
2022/12/04 03:32:26;;;;;;;45.30;40.80;;;;;;;0.22;100.00;98393.16;104248;1320;22205;-80
2022/12/04 03:34:54;;;;;;;45.90;41.40;;;;;;;0.21;100.00;98397.24;104002;1338;22322;-80
2022/12/04 03:37:52;;;;;;;47.60;43.20;;;;;;;0.22;100.00;98389.78;104140;1338;22161;-80
2022/12/04 03:40:29;;;;;;;46.80;42.60;;;;;;;0.22;100.00;98386.18;104136;1337;22274;-80
2022/12/04 03:43:04;;;;;;;45.60;41.40;;;;;;;0.24;100.00;98386.86;104424;1329;22110;-80
2022/12/04 03:45:43;;;;;;;48.00;43.40;;;;;;;0.23;100.00;98386.79;104757;1321;22256;-80
2022/12/04 03:48:27;;;;;;;48.70;44.20;;;;;;;0.21;100.00;98391.77;104526;1330;22285;-80
2022/12/04 03:51:18;;;;;;;47.90;43.30;;;;;;;0.20;100.00;98393.71;104956;1322;21811;-80
2022/12/04 03:53:55;;;;;;;43.90;39.90;;;;;;;0.18;100.00;98393.33;104651;1329;22966;-79
2022/12/04 03:56:30;;;;;;;42.40;38.40;;;;;;;0.18;100.00;98387.46;104502;1329;22157;-79
2022/12/04 03:59:05;;;;;;;44.60;40.40;;;;;;;0.17;100.00;98377.14;104588;1329;23012;-79
2022/12/04 04:01:37;;;;;;;44.10;39.90;;;;;;;0.21;100.00;98378.61;104470;1330;22142;-79
2022/12/04 04:04:11;;;;;;;46.60;42.00;;;;;;;0.21;100.00;98380.21;104893;1323;22250;-79
2022/12/04 04:06:45;;;;;;;44.10;40.00;;;;;;;0.21;100.00;98380.49;104629;1330;22191;-79
2022/12/04 04:09:20;;;;;;;48.50;43.80;;;;;;;0.22;100.00;98383.33;104544;1329;22220;-79
2022/12/04 04:11:55;;;;;;;47.40;42.80;;;;;;;0.22;100.00;98386.88;104728;1317;22715;-79
2022/12/04 04:25:51;;;;;;;39.90;36.00;;;;;;;0.27;100.00;98375.42;104635;1329;22232;-80
2022/12/04 04:28:40;;;;;;;43.80;39.60;;;;;;;0.29;100.00;98373.20;104883;1322;22191;-80
2022/12/04 04:31:11;;;;;;;41.20;37.40;;;;;;;0.29;100.00;98377.15;104796;1317;22224;-80
2022/12/04 04:34:06;;;;;;;41.00;37.20;;;;;;;0.26;100.00;98379.27;104944;1313;22192;-80
2022/12/04 04:36:58;;;;;;;38.20;34.60;;;;;;;0.29;100.00;98380.48;104859;1321;22950;-80
2022/12/04 04:39:38;;;;;;;37.80;34.30;;;;;;;0.33;100.00;98382.48;104741;1329;22932;-80
2022/12/04 04:42:14;;;;;;;36.30;33.10;;;;;;;0.40;100.00;98383.63;104958;1311;22177;-80
2022/12/04 04:44:59;;;;;;;40.90;37.10;;;;;;;0.42;100.00;98379.16;104749;1320;22328;-80
2022/12/04 04:47:36;;;;;;;40.70;36.80;;;;;;;0.37;100.00;98380.52;104639;1325;22104;-80
2022/12/04 04:50:09;;;;;;;40.00;36.10;;;;;;;0.33;100.00;98379.70;104725;1329;22398;-80
2022/12/04 04:52:41;;;;;;;39.30;35.60;;;;;;;0.29;100.00;98380.78;104524;1328;22229;-80
2022/12/04 04:55:09;;;;;;;38.10;34.70;;;;;;;0.30;100.00;98378.03;104970;1315;22233;-79
2022/12/04 04:57:37;;;;;;;37.80;34.20;;;;;;;0.29;100.00;98374.58;104520;1330;22220;-80
2022/12/04 05:00:19;;;;;;;39.20;35.70;;;;;;;0.29;100.00;98375.67;104754;1329;22341;-80
2022/12/04 05:02:48;;;;;;;38.10;34.50;;;;;;;0.31;100.00;98377.73;104536;1326;22204;-79
2022/12/04 05:05:17;;;;;;;38.60;35.00;;;;;;;0.32;100.00;98375.39;104498;1330;22276;-80
2022/12/04 05:07:45;;;;;;;37.40;34.10;;;;;;;0.30;100.00;98372.94;104775;1323;22204;-80
2022/12/04 05:10:13;;;;;;;36.20;32.90;;;;;;;0.25;100.00;98372.33;104729;1329;22930;-80
2022/12/04 05:12:41;;;;;;;36.60;33.00;;;;;;;0.20;100.00;98375.11;104620;1329;22368;-80
2022/12/04 05:15:09;;;;;;;35.50;32.20;;;;;;;0.19;100.00;98376.02;104939;1323;22207;-80
2022/12/04 05:17:37;;;;;;;36.80;33.30;;;;;;;0.20;100.00;98371.70;104553;1329;22143;-80
2022/12/04 05:20:07;;;;;;;34.90;31.80;;;;;;;0.21;100.00;98371.52;104726;1329;22212;-80
2022/12/04 05:22:36;;;;;;;35.10;32.00;;;;;;;0.24;100.00;98373.89;104508;1329;22201;-79
2022/12/04 05:25:05;;;;;;;37.30;34.00;;;;;;;0.24;100.00;98368.76;104733;1329;22971;-80
2022/12/04 05:27:33;;;;;;;37.10;33.80;;;;;;;0.22;100.00;98367.59;104709;1329;22186;-80
2022/12/04 05:30:01;;;;;;;35.80;32.40;;;;;;;0.19;100.00;98364.77;104494;1328;23153;-80
2022/12/04 05:32:29;;;;;;;37.50;34.10;;;;;;;0.17;100.00;98371.35;104782;1329;22190;-80
2022/12/04 05:34:57;;;;;;;32.60;29.70;;;;;;;0.19;100.00;98370.23;104986;1322;22140;-79
2022/12/04 05:37:25;;;;;;;34.00;30.80;;;;;;;0.21;100.00;98370.30;104781;1329;22115;-80
2022/12/04 05:39:53;;;;;;;34.90;31.40;;;;;;;0.21;100.00;98369.40;104625;1329;22852;-79
2022/12/04 05:42:22;;;;;;;34.90;31.60;;;;;;;0.22;100.00;98375.83;104992;1322;22382;-80
2022/12/04 05:44:49;;;;;;;37.30;33.20;;;;;;;0.22;100.00;98385.02;104607;1330;22739;-80
2022/12/04 05:47:17;;;;;;;38.70;35.20;;;;;;;0.20;100.00;98385.48;104725;1321;22129;-81
2022/12/04 05:49:45;;;;;;;38.20;34.70;;;;;;;0.19;100.00;98382.58;104958;1311;22389;-80
2022/12/04 05:52:13;;;;;;;36.90;33.00;;;;;;;0.20;100.00;98383.19;104963;1322;22183;-80
2022/12/04 05:54:41;;;;;;;36.10;32.90;;;;;;;0.22;100.00;98387.67;104629;1330;22293;-81
2022/12/04 05:57:09;;;;;;;34.60;31.30;;;;;;;0.24;100.00;98392.61;104522;1325;22250;-83
2022/12/04 05:59:37;;;;;;;37.40;34.00;;;;;;;0.28;100.00;98396.69;104886;1322;22192;-84
2022/12/04 06:02:05;;;;;;;40.30;36.60;;;;;;;0.29;100.00;98399.04;104670;1330;23017;-80
2022/12/04 06:04:36;;;;;;;39.50;36.10;;;;;;;0.27;100.00;98395.73;104979;1304;22091;-82
2022/12/04 06:07:03;;;;;;;37.20;33.90;;;;;;;0.24;100.00;98388.89;104784;1330;22139;-82
2022/12/04 06:09:31;;;;;;;38.10;34.50;;;;;;;0.24;100.00;98386.13;105023;1323;22175;-82
2022/12/04 06:11:59;;;;;;;33.00;30.00;;;;;;;0.23;100.00;98385.03;104622;1330;22141;-81
2022/12/04 06:14:27;;;;;;;33.10;29.80;;;;;;;0.21;100.00;98379.11;104789;1329;22236;-81
2022/12/04 06:16:55;;;;;;;31.40;28.60;;;;;;;0.21;100.00;98383.02;104789;1322;22244;-81
2022/12/04 06:19:23;;;;;;;30.70;27.90;;;;;;;0.21;100.00;98380.04;104542;1325;22099;-80
2022/12/04 06:21:52;;;;;;;35.70;32.40;;;;;;;0.20;100.00;98377.06;104630;1323;22269;-80
2022/12/04 06:24:22;;;;;;;30.70;27.90;;;;;;;0.16;100.00;98380.70;104758;1330;22191;-79
2022/12/04 06:26:55;;;;;;;31.20;28.40;;;;;;;0.13;100.00;98379.35;104734;1329;22879;-80
2022/12/04 06:29:43;;;;;;;32.20;29.30;;;;;;;0.15;100.00;98377.92;104528;1332;22280;-80
2022/12/04 06:32:11;;;;;;;30.60;28.00;;;;;;;0.16;100.00;98377.46;104980;1323;22247;-80
2022/12/04 06:34:50;;;;;;;28.60;26.00;;;;;;;0.17;100.00;98376.66;104717;1329;22217;-81
2022/12/04 06:37:18;;;;;;;33.30;30.40;;;;;;;0.18;100.00;98381.27;104970;1309;22899;-81
2022/12/04 06:39:46;;;;;;;33.90;30.70;;;;;;;0.18;100.00;98379.66;104737;1322;22212;-81
2022/12/04 06:42:15;;;;;;;32.60;29.60;;;;;;;0.19;100.00;98385.61;104747;1331;23043;-81
2022/12/04 06:44:43;;;;;;;31.50;28.60;;;;;;;0.18;100.00;98383.26;104810;1310;22397;-81
2022/12/04 06:47:11;;;;;;;31.70;28.60;;;;;;;0.18;100.00;98384.44;104656;1336;22094;-81
2022/12/04 06:49:39;;;;;;;30.90;28.10;;;;;;;0.19;100.00;98389.07;104643;1333;22227;-82
2022/12/04 06:52:07;;;;;;;29.60;26.90;;;;;;;0.22;100.00;98389.20;104740;1334;22293;-80
2022/12/04 06:54:34;;;;;;;30.40;27.60;;;;;;;0.23;100.00;98394.95;104963;1311;22085;-82
2022/12/04 06:57:02;;;;;;;30.10;27.50;;;;;;;0.26;100.00;98397.84;104973;1314;22117;-82
2022/12/04 06:59:32;;;;;;;32.00;29.20;;;;;;;0.26;100.00;98396.52;104791;1330;22793;-82
2022/12/04 07:02:00;;;;;;;32.50;29.50;;;;;;;0.22;100.00;98393.55;104742;1330;22239;-81
2022/12/04 07:04:28;;;;;;;32.00;29.10;;;;;;;0.21;100.00;98392.57;104608;1332;22216;-81
2022/12/04 07:06:56;;;;;;;32.40;29.40;;;;;;;0.21;100.00;98389.39;104930;1324;22827;-82
2022/12/04 07:09:24;;;;;;;33.50;30.40;;;;;;;0.21;100.00;98385.95;104751;1330;22229;-80
2022/12/04 07:11:53;;;;;;;32.90;29.80;;;;;;;0.22;100.00;98388.52;104624;1330;22206;-81
2022/12/04 07:14:21;;;;;;;35.50;32.10;;;;;;;0.25;100.00;98389.91;104632;1331;22233;-81
2022/12/04 07:16:50;;;;;;;32.50;29.60;;;;;;;0.27;100.00;98396.50;104743;1334;22264;-81
2022/12/04 07:19:18;;;;;;;33.70;30.60;;;;;;;0.30;100.00;98395.70;104612;1331;22261;-84
2022/12/04 07:21:46;;;;;;;37.70;34.20;;;;;;;0.31;100.00;98394.61;104626;1331;153984;-82
2022/12/04 07:24:16;;;;;;;35.80;32.50;;;;;;;0.32;100.00;98398.39;104756;1336;23460;-80
2022/12/04 07:26:44;;;;;;;33.20;30.20;;;;;;;0.36;100.00;98395.38;104644;1336;22198;-81
2022/12/04 07:29:12;;;;;;;36.10;32.70;;;;;;;0.41;100.00;98392.16;105010;1323;22218;-82
2022/12/04 07:31:40;;;;;;;32.90;29.90;;;;;;;0.43;100.00;98390.77;104484;1333;22207;-81
2022/12/04 07:34:08;;;;;;;32.70;29.70;;;;;;;0.48;100.00;98386.81;104698;1331;22248;-81
2022/12/04 07:36:38;;;;;;;36.00;32.70;;;;;;;0.50;100.00;98383.98;104555;1331;22138;-81
2022/12/04 07:39:06;;;;;;;33.50;30.10;;;;;;;0.47;100.00;98373.40;104906;1299;22186;-82
2022/12/04 07:41:34;;;;;;;32.70;29.70;;;;;;;0.54;100.00;98379.35;104787;1330;22129;-81
2022/12/04 07:44:05;;;;;;;31.90;29.10;;;;;;;0.59;100.00;98380.02;104523;1332;22284;-82
2022/12/04 07:46:33;;;;;;;31.20;28.20;;;;;;;0.63;100.00;98376.92;104737;1334;22222;-81
2022/12/04 07:49:01;;;;;;;34.30;31.10;;;;;;;0.69;100.00;98381.95;104709;1327;22189;-81
2022/12/04 07:51:29;;;;;;;38.80;35.40;;;;;;;0.75;100.00;98392.41;105010;1313;22783;-82
2022/12/04 07:53:57;;;;;;;39.20;35.60;;;;;;;0.80;100.00;98398.86;104765;1329;22256;-82
2022/12/04 07:56:32;;;;;;;36.00;32.50;;;;;;;0.82;100.00;98399.08;104759;1330;22267;-81
2022/12/04 07:59:00;;;;;;;35.50;32.30;;;;;;;0.86;100.00;98396.39;104520;1328;22285;-81
2022/12/04 08:01:29;;;;;;;34.10;31.00;;;;;;;0.92;100.00;98394.69;104527;1323;22191;-81
2022/12/04 08:03:59;;;;;;;40.50;37.00;;;;;;;0.97;100.00;98393.91;104687;1330;22111;-82
2022/12/04 08:06:29;;;;;;;40.50;36.90;;;;;;;1.00;100.00;98398.61;104595;1336;22242;-82
2022/12/04 08:08:56;;;;;;;48.00;43.60;;;;;;;1.01;100.00;98406.45;104610;1330;22193;-81
2022/12/04 08:11:27;;;;;;;40.40;36.70;;;;;;;1.04;100.00;98417.83;104515;1329;22217;-81
2022/12/04 08:13:56;;;;;;;35.70;32.60;;;;;;;1.08;100.00;98420.52;104624;1329;22286;-81
2022/12/04 08:16:26;;;;;;;34.40;31.30;;;;;;;1.07;100.00;98424.48;104546;1333;22250;-80
2022/12/04 08:18:54;;;;;;;35.50;32.30;;;;;;;1.10;100.00;98427.77;104635;1332;22228;-82
2022/12/04 08:21:25;;;;;;;39.90;36.40;;;;;;;1.16;100.00;98429.03;104513;1330;22110;-81
2022/12/04 08:23:54;;;;;;;42.30;38.60;;;;;;;1.20;100.00;98422.08;104606;1330;22223;-80
2022/12/04 08:26:24;;;;;;;34.90;31.80;;;;;;;1.17;100.00;98415.38;104498;1330;22227;-81
2022/12/04 08:28:54;;;;;;;33.00;30.20;;;;;;;1.15;100.00;98409.16;104422;1325;22111;-81
2022/12/04 08:31:25;;;;;;;31.20;28.50;;;;;;;1.18;100.00;98404.84;104747;1329;22249;-81
2022/12/04 08:33:55;;;;;;;;;;;;;;;1.21;100.00;98403.15;104510;1326;22758;-81
2022/12/04 08:36:24;;;;;;;32.10;29.20;;;;;;;1.26;100.00;98406.46;104596;1332;22360;-82
2022/12/04 08:38:52;;;;;;;34.50;31.60;;;;;;;1.27;100.00;98414.73;104808;1325;22232;-81
2022/12/04 08:41:22;;;;;;;38.70;35.30;;;;;;;1.29;100.00;98420.06;104979;1311;22215;-82
2022/12/04 08:43:53;;;;;;;37.20;33.90;;;;;;;1.31;100.00;98416.41;104968;1322;22099;-81
2022/12/04 08:46:23;;;;;;;34.30;31.20;;;;;;;1.35;100.00;98414.10;104725;1322;22234;-81
2022/12/04 08:48:51;;;;;;;35.50;32.30;;;;;;;1.38;100.00;98408.26;104804;1322;22189;-81
2022/12/04 08:51:30;;;;;;;32.80;29.80;;;;;;;1.44;100.00;98411.38;104702;1330;22200;-82
2022/12/04 08:54:01;;;;;;;32.60;29.80;;;;;;;1.49;100.00;98412.46;104618;1330;22122;-81
2022/12/04 08:56:30;;;;;;;37.00;33.70;;;;;;;1.53;100.00;98416.13;104977;1315;22239;-81
2022/12/04 08:58:59;;;;;;;37.00;33.60;;;;;;;1.60;100.00;98419.91;104729;1330;22114;-82
2022/12/04 09:01:28;;;;;;;33.60;30.50;;;;;;;1.64;100.00;98425.15;104630;1329;22864;-82
2022/12/04 09:03:56;;;;;;;33.80;30.80;;;;;;;1.72;100.00;98425.09;104904;1323;22340;-83
2022/12/04 09:06:25;;;;;;;34.30;31.30;;;;;;;1.79;100.00;98425.17;104897;1314;22912;-81
2022/12/04 09:08:54;;;;;;;35.00;32.00;;;;;;;1.86;100.00;98419.96;104623;1324;22290;-82
2022/12/04 09:11:25;;;;;;;37.20;33.90;;;;;;;1.87;100.00;98419.02;104727;1323;22106;-82
2022/12/04 09:13:54;;;;;;;36.70;33.30;;;;;;;1.88;100.00;98423.68;104720;1329;22113;-83
2022/12/04 09:16:24;;;;;;;36.70;33.40;;;;;;;1.87;100.00;98430.98;104788;1329;22092;-83
2022/12/04 09:18:54;;;;;;;36.50;33.30;;;;;;;1.88;100.00;98429.30;104725;1329;22148;-83
2022/12/04 09:21:23;;;;;;;36.30;33.00;;;;;;;1.86;100.00;98421.19;104503;1332;22225;-82
2022/12/04 09:23:51;;;;;;;34.90;31.80;;;;;;;1.88;100.00;98413.90;104752;1329;22220;-83
2022/12/04 09:26:26;;;;;;;37.00;33.70;;;;;;;1.91;100.00;98410.79;104584;1330;22184;-82
2022/12/04 09:28:56;;;;;;;37.50;34.10;;;;;;;1.90;100.00;98407.94;104516;1330;22133;-83
2022/12/04 09:31:25;;;;;;;38.20;34.70;;;;;;;1.87;100.00;98406.80;104537;1330;22216;-83
2022/12/04 09:33:53;;;;;;;36.80;33.60;;;;;;;1.86;100.00;98400.02;104428;1329;22275;-82
2022/12/04 09:36:22;;;;;;;34.30;31.10;;;;;;;1.86;100.00;98400.58;104624;1325;22265;-82
2022/12/04 09:38:52;;;;;;;35.50;32.30;;;;;;;1.89;100.00;98402.61;104944;1322;22253;-82
2022/12/04 09:41:35;;;;;;;36.00;32.90;;;;;;;1.93;100.00;98402.80;104860;1322;22303;-83
2022/12/04 09:44:09;;;;;;;36.80;33.50;;;;;;;2.00;100.00;98400.04;105046;1322;22625;-81
2022/12/04 09:46:41;;;;;;;40.30;36.80;;;;;;;2.00;100.00;98392.44;104774;1329;22762;-81
2022/12/04 09:49:16;;;;;;;40.90;37.50;;;;;;;2.00;100.00;98385.36;104946;1323;22097;-82
2022/12/04 09:51:45;;;;;;;41.50;37.90;;;;;;;2.01;100.00;98385.56;104515;1328;22225;-82
2022/12/04 09:54:17;;;;;;;35.30;32.10;;;;;;;2.04;100.00;98373.89;104800;1323;22080;-83
2022/12/04 09:57:14;;;;;;;36.70;33.50;;;;;;;2.08;100.00;98363.36;104969;1321;23054;-82
2022/12/04 09:59:44;;;;;;;30.60;27.80;;;;;;;2.08;100.00;98358.70;104699;1324;22090;-83
2022/12/04 10:02:32;;;;;;;34.80;31.70;;;;;;;2.06;100.00;98354.77;105018;1322;22643;-82
2022/12/04 10:05:02;;;;;;;36.50;33.10;;;;;;;2.10;100.00;98344.59;104781;1323;22287;-82
2022/12/04 10:08:01;;;;;;;35.10;32.10;;;;;;;2.11;100.00;98340.15;104729;1329;22194;-82
2022/12/04 10:10:36;;;;;;;33.30;30.30;;;;;;;2.15;100.00;98332.74;104752;1329;22792;-82
2022/12/04 10:13:30;;;;;;;36.30;33.00;;;;;;;2.23;100.00;98334.52;104743;1329;22293;-82
2022/12/04 10:16:07;;;;;;;35.90;32.80;;;;;;;2.38;100.00;98331.53;105006;1322;22266;-82
2022/12/04 10:19:12;;;;;;;36.70;33.50;;;;;;;2.48;100.00;98328.06;104719;1329;22337;-82
2022/12/04 10:21:54;;;;;;;38.50;35.10;;;;;;;2.61;100.00;98328.90;104763;1329;22232;-82
2022/12/04 10:24:26;;;;;;;42.80;39.20;;;;;;;2.65;100.00;98332.35;104988;1322;22237;-81
2022/12/04 10:26:56;;;;;;;44.60;40.70;;;;;;;2.66;100.00;98332.77;104756;1329;22236;-82
2022/12/04 10:29:31;;;;;;;44.70;40.90;;;;;;;2.68;100.00;98332.86;104980;1321;22302;-82
2022/12/04 10:32:25;;;;;;;46.60;42.40;;;;;;;2.67;100.00;98336.24;104717;1330;22257;-81
2022/12/04 10:34:58;;;;;;;36.50;33.30;;;;;;;2.68;100.00;98327.16;104737;1330;22174;-82
2022/12/04 10:37:27;;;;;;;37.80;34.50;;;;;;;2.66;100.00;98327.94;104547;1329;22218;-82
2022/12/04 10:40:08;;;;;;;38.70;35.20;;;;;;;2.63;100.00;98318.39;104624;1330;22243;-82
2022/12/04 10:42:45;;;;;;;34.70;31.80;;;;;;;2.59;100.00;98318.74;104624;1330;22309;-82
2022/12/04 10:45:13;;;;;;;36.20;33.10;;;;;;;2.66;100.00;98312.23;104516;1330;22152;-84
2022/12/04 10:47:44;;;;;;;32.20;29.40;;;;;;;2.73;100.00;98314.07;104789;1329;22111;-82
2022/12/04 10:50:19;;;;;;;34.00;31.10;;;;;;;2.77;100.00;98319.89;104560;1330;22106;-82
2022/12/04 10:52:48;;;;;;;35.30;32.20;;;;;;;2.84;100.00;98314.75;104612;1327;22094;-82
2022/12/04 10:55:29;;;;;;;37.50;34.30;;;;;;;2.85;100.00;98314.22;104518;1330;22214;-83
2022/12/04 10:57:58;;;;;;;38.80;35.50;;;;;;;2.89;100.00;98321.27;104714;1329;22552;-83
2022/12/04 11:00:33;;;;;;;39.40;36.00;;;;;;;2.97;100.00;98321.91;104635;1329;22921;-82
2022/12/04 11:03:23;;;;;;;42.50;38.80;;;;;;;3.04;100.00;98325.13;104622;1330;22165;-82
2022/12/04 11:05:57;;;;;;;47.30;42.80;;;;;;;3.08;100.00;98323.17;104497;1320;22249;-82
2022/12/04 11:08:34;;;;;;;45.90;42.00;;;;;;;3.07;100.00;98312.96;104612;1330;22260;-82
2022/12/04 11:11:10;;;;;;;41.20;37.80;;;;;;;3.07;100.00;98316.61;104523;1329;22360;-82
2022/12/04 11:13:39;;;;;;;42.80;39.10;;;;;;;3.07;100.00;98324.80;104590;1330;22267;-83
2022/12/04 11:16:27;;;;;;;41.40;37.80;;;;;;;3.07;100.00;98329.86;104882;1323;22364;-83
2022/12/04 11:18:55;;;;;;;42.00;38.30;;;;;;;3.08;100.00;98331.58;104977;1321;22222;-83
2022/12/04 11:21:28;;;;;;;41.80;38.00;;;;;;;3.11;100.00;98327.05;104744;1329;22856;-82
2022/12/04 11:23:57;;;;;;;43.30;39.60;;;;;;;3.11;100.00;98324.81;104481;1329;22270;-85
2022/12/04 11:26:34;;;;;;;42.10;38.40;;;;;;;3.11;100.00;98328.02;104625;1329;22265;-82
2022/12/04 11:29:04;;;;;;;39.80;36.50;;;;;;;3.08;100.00;98336.54;104742;1329;22241;-81
2022/12/04 11:31:33;;;;;;;38.60;35.30;;;;;;;3.10;100.00;98339.12;104818;1321;22098;-82
2022/12/04 11:34:05;;;;;;;40.50;37.00;;;;;;;3.14;100.00;98334.34;104745;1325;22228;-82
2022/12/04 11:36:39;;;;;;;39.20;35.70;;;;;;;3.23;100.00;98337.92;104739;1329;22176;-81
2022/12/04 11:39:10;;;;;;;39.50;36.20;;;;;;;3.29;100.00;98340.09;104755;1317;22882;-81
2022/12/04 11:41:39;;;;;;;41.40;38.00;;;;;;;3.29;100.00;98348.23;104971;1322;22378;-82
2022/12/04 11:44:25;;;;;;;40.80;37.40;;;;;;;3.26;100.00;98348.51;104972;1320;22157;-83
2022/12/04 11:46:56;;;;;;;38.00;34.80;;;;;;;3.23;100.00;98344.79;104595;1330;22240;-82